sensor_id;sensor_type;location;lat;lon;timestamp;pressure;altitude;pressure_sealevel;temperature;humidity
84374;BME280;74563;52.206;14.630;2024-03-06T00:00:35;101801.94;;;5.02;63.35
84374;BME280;74563;52.206;14.630;2024-03-06T00:03:01;101780.75;;;4.89;62.91
84374;BME280;74563;52.206;14.630;2024-03-06T00:05:26;101810.97;;;5.25;62.02
84374;BME280;74563;52.206;14.630;2024-03-06T00:07:51;101789.97;;;4.55;63.32
84374;BME280;74563;52.206;14.630;2024-03-06T00:10:17;101805.97;;;4.67;64.37
84374;BME280;74563;52.206;14.630;2024-03-06T00:12:42;101814.28;;;5.01;63.13
84374;BME280;74563;52.206;14.630;2024-03-06T00:15:07;101799.88;;;4.10;65.71
84374;BME280;74563;52.206;14.630;2024-03-06T00:17:33;101811.56;;;5.42;61.35
84374;BME280;74563;52.206;14.630;2024-03-06T00:19:58;101812.75;;;4.14;65.38
84374;BME280;74563;52.206;14.630;2024-03-06T00:22:23;101810.06;;;4.30;65.49
84374;BME280;74563;52.206;14.630;2024-03-06T00:24:49;101818.72;;;4.87;63.45
84374;BME280;74563;52.206;14.630;2024-03-06T00:27:14;101820.59;;;4.99;61.94
84374;BME280;74563;52.206;14.630;2024-03-06T00:29:39;101820.56;;;5.13;61.17
84374;BME280;74563;52.206;14.630;2024-03-06T00:32:05;101825.88;;;5.26;60.89
84374;BME280;74563;52.206;14.630;2024-03-06T00:34:30;101821.34;;;5.01;61.33
84374;BME280;74563;52.206;14.630;2024-03-06T00:36:55;101814.72;;;5.08;61.72
84374;BME280;74563;52.206;14.630;2024-03-06T00:39:20;101826.19;;;5.48;60.88
84374;BME280;74563;52.206;14.630;2024-03-06T00:41:46;101808.94;;;4.89;62.77
84374;BME280;74563;52.206;14.630;2024-03-06T00:44:11;101832.91;;;4.58;66.38
84374;BME280;74563;52.206;14.630;2024-03-06T00:46:36;101800.81;;;5.19;62.73
84374;BME280;74563;52.206;14.630;2024-03-06T00:49:02;101833.09;;;5.10;64.18
84374;BME280;74563;52.206;14.630;2024-03-06T00:51:27;101812.91;;;5.35;61.80
84374;BME280;74563;52.206;14.630;2024-03-06T00:53:52;101818.66;;;5.15;62.28
84374;BME280;74563;52.206;14.630;2024-03-06T00:56:17;101839.19;;;4.83;64.77
84374;BME280;74563;52.206;14.630;2024-03-06T00:58:43;101842.69;;;5.11;63.87
84374;BME280;74563;52.206;14.630;2024-03-06T01:01:08;101837.22;;;4.16;66.76
84374;BME280;74563;52.206;14.630;2024-03-06T01:03:33;101839.19;;;4.27;66.16
84374;BME280;74563;52.206;14.630;2024-03-06T01:05:59;101855.47;;;4.33;65.63
84374;BME280;74563;52.206;14.630;2024-03-06T01:08:24;101844.13;;;3.89;66.93
84374;BME280;74563;52.206;14.630;2024-03-06T01:10:50;101855.13;;;4.68;64.20
84374;BME280;74563;52.206;14.630;2024-03-06T01:13:16;101857.09;;;4.22;65.62
84374;BME280;74563;52.206;14.630;2024-03-06T01:15:41;101816.22;;;4.00;64.67
84374;BME280;74563;52.206;14.630;2024-03-06T01:18:07;101850.97;;;4.35;64.53
84374;BME280;74563;52.206;14.630;2024-03-06T01:20:32;101849.47;;;5.15;62.10
84374;BME280;74563;52.206;14.630;2024-03-06T01:22:57;101859.19;;;3.87;65.57
84374;BME280;74563;52.206;14.630;2024-03-06T01:25:23;101861.44;;;4.23;63.79
84374;BME280;74563;52.206;14.630;2024-03-06T01:27:49;101841.19;;;4.23;63.57
84374;BME280;74563;52.206;14.630;2024-03-06T01:30:14;101855.88;;;3.53;66.30
84374;BME280;74563;52.206;14.630;2024-03-06T01:32:40;101874.16;;;3.41;66.83
84374;BME280;74563;52.206;14.630;2024-03-06T01:35:06;101873.16;;;3.12;68.14
84374;BME280;74563;52.206;14.630;2024-03-06T01:37:31;101851.84;;;3.01;67.44
84374;BME280;74563;52.206;14.630;2024-03-06T01:39:57;101881.53;;;2.87;69.46
84374;BME280;74563;52.206;14.630;2024-03-06T01:42:22;101880.00;;;3.15;68.03
84374;BME280;74563;52.206;14.630;2024-03-06T01:44:47;101879.22;;;3.60;66.35
84374;BME280;74563;52.206;14.630;2024-03-06T01:47:12;101870.91;;;4.11;63.98
84374;BME280;74563;52.206;14.630;2024-03-06T01:49:38;101875.75;;;3.89;64.66
84374;BME280;74563;52.206;14.630;2024-03-06T01:52:04;101877.75;;;3.99;64.56
84374;BME280;74563;52.206;14.630;2024-03-06T01:54:30;101871.13;;;4.36;62.09
84374;BME280;74563;52.206;14.630;2024-03-06T01:56:57;101893.91;;;3.93;63.95
84374;BME280;74563;52.206;14.630;2024-03-06T01:59:25;101852.34;;;4.13;63.10
84374;BME280;74563;52.206;14.630;2024-03-06T02:01:52;101889.91;;;4.16;63.25
84374;BME280;74563;52.206;14.630;2024-03-06T02:04:18;101900.38;;;3.58;65.70
84374;BME280;74563;52.206;14.630;2024-03-06T02:06:44;101871.78;;;3.05;66.66
84374;BME280;74563;52.206;14.630;2024-03-06T02:09:10;101861.53;;;3.77;64.58
84374;BME280;74563;52.206;14.630;2024-03-06T02:11:36;101889.81;;;4.03;63.43
84374;BME280;74563;52.206;14.630;2024-03-06T02:14:01;101900.63;;;4.85;59.86
84374;BME280;74563;52.206;14.630;2024-03-06T02:16:27;101882.44;;;4.52;61.26
84374;BME280;74563;52.206;14.630;2024-03-06T02:18:53;101894.00;;;3.62;65.03
84374;BME280;74563;52.206;14.630;2024-03-06T02:21:22;101886.63;;;3.83;63.99
84374;BME280;74563;52.206;14.630;2024-03-06T02:23:48;101902.63;;;3.80;64.29
84374;BME280;74563;52.206;14.630;2024-03-06T02:26:14;101896.41;;;3.20;65.84
84374;BME280;74563;52.206;14.630;2024-03-06T02:28:39;101871.53;;;2.94;66.80
84374;BME280;74563;52.206;14.630;2024-03-06T02:31:11;101889.16;;;3.54;65.34
84374;BME280;74563;52.206;14.630;2024-03-06T02:33:36;101889.16;;;3.54;65.37
84374;BME280;74563;52.206;14.630;2024-03-06T02:36:02;101880.00;;;2.35;68.50
84374;BME280;74563;52.206;14.630;2024-03-06T02:38:27;101896.69;;;2.67;67.88
84374;BME280;74563;52.206;14.630;2024-03-06T02:40:52;101866.50;;;3.52;64.83
84374;BME280;74563;52.206;14.630;2024-03-06T02:43:17;101895.84;;;2.66;67.68
84374;BME280;74563;52.206;14.630;2024-03-06T02:45:42;101900.91;;;2.53;68.70
84374;BME280;74563;52.206;14.630;2024-03-06T02:48:08;101901.72;;;2.87;68.04
84374;BME280;74563;52.206;14.630;2024-03-06T02:50:33;101910.47;;;3.95;63.34
84374;BME280;74563;52.206;14.630;2024-03-06T02:52:58;101900.41;;;4.46;60.87
84374;BME280;74563;52.206;14.630;2024-03-06T02:55:24;101906.72;;;4.86;59.01
84374;BME280;74563;52.206;14.630;2024-03-06T02:57:49;101899.28;;;4.06;60.85
84374;BME280;74563;52.206;14.630;2024-03-06T03:00:15;101903.13;;;3.71;62.64
84374;BME280;74563;52.206;14.630;2024-03-06T03:02:41;101902.59;;;3.19;64.70
84374;BME280;74563;52.206;14.630;2024-03-06T03:05:07;101873.06;;;2.82;65.28
84374;BME280;74563;52.206;14.630;2024-03-06T03:07:32;101912.19;;;3.35;65.36
84374;BME280;74563;52.206;14.630;2024-03-06T03:09:57;101895.63;;;3.94;62.24
84374;BME280;74563;52.206;14.630;2024-03-06T03:12:22;101904.41;;;3.64;62.71
84374;BME280;74563;52.206;14.630;2024-03-06T03:14:48;101912.47;;;3.76;62.56
84374;BME280;74563;52.206;14.630;2024-03-06T03:17:13;101909.59;;;3.65;62.50
84374;BME280;74563;52.206;14.630;2024-03-06T03:19:40;101906.38;;;4.20;60.67
84374;BME280;74563;52.206;14.630;2024-03-06T03:22:05;101908.28;;;3.11;64.33
84374;BME280;74563;52.206;14.630;2024-03-06T03:24:31;101880.09;;;3.44;63.03
84374;BME280;74563;52.206;14.630;2024-03-06T03:26:56;101887.25;;;4.02;61.25
84374;BME280;74563;52.206;14.630;2024-03-06T03:29:22;101913.31;;;4.36;61.70
84374;BME280;74563;52.206;14.630;2024-03-06T03:31:47;101900.97;;;2.85;66.75
84374;BME280;74563;52.206;14.630;2024-03-06T03:34:13;101927.25;;;2.52;70.52
84374;BME280;74563;52.206;14.630;2024-03-06T03:36:42;101929.31;;;2.95;69.02
84374;BME280;74563;52.206;14.630;2024-03-06T03:39:08;101926.34;;;2.86;68.74
84374;BME280;74563;52.206;14.630;2024-03-06T03:41:42;101932.84;;;2.79;69.09
84374;BME280;74563;52.206;14.630;2024-03-06T03:44:07;101896.56;;;2.85;68.88
84374;BME280;74563;52.206;14.630;2024-03-06T03:46:33;101897.88;;;2.77;68.40
84374;BME280;74563;52.206;14.630;2024-03-06T03:48:58;101911.34;;;3.19;67.27
84374;BME280;74563;52.206;14.630;2024-03-06T03:51:23;101936.19;;;3.61;66.55
84374;BME280;74563;52.206;14.630;2024-03-06T03:53:48;101932.69;;;3.76;65.64
84374;BME280;74563;52.206;14.630;2024-03-06T03:56:16;101947.13;;;3.69;66.79
84374;BME280;74563;52.206;14.630;2024-03-06T03:58:41;101927.09;;;2.38;69.13
84374;BME280;74563;52.206;14.630;2024-03-06T04:01:10;101958.88;;;2.16;71.83
84374;BME280;74563;52.206;14.630;2024-03-06T04:03:36;101961.94;;;1.90;72.86
84374;BME280;74563;52.206;14.630;2024-03-06T04:06:01;101965.28;;;2.11;71.83
84374;BME280;74563;52.206;14.630;2024-03-06T04:08:27;101964.50;;;1.91;73.67
84374;BME280;74563;52.206;14.630;2024-03-06T04:10:52;101954.00;;;2.43;71.80
84374;BME280;74563;52.206;14.630;2024-03-06T04:13:18;101974.53;;;3.02;69.66
84374;BME280;74563;52.206;14.630;2024-03-06T04:15:45;101954.94;;;2.25;72.09
84374;BME280;74563;52.206;14.630;2024-03-06T04:18:10;101978.56;;;2.42;74.57
84374;BME280;74563;52.206;14.630;2024-03-06T04:20:36;101966.22;;;2.77;72.61
84374;BME280;74563;52.206;14.630;2024-03-06T04:23:01;101957.75;;;3.20;71.69
84374;BME280;74563;52.206;14.630;2024-03-06T04:25:27;101961.75;;;3.43;70.93
84374;BME280;74563;52.206;14.630;2024-03-06T04:27:52;101986.13;;;3.31;71.55
84374;BME280;74563;52.206;14.630;2024-03-06T04:30:17;101950.09;;;3.00;73.04
84374;BME280;74563;52.206;14.630;2024-03-06T04:32:42;101973.22;;;4.03;69.26
84374;BME280;74563;52.206;14.630;2024-03-06T04:35:09;101968.38;;;4.11;68.93
84374;BME280;74563;52.206;14.630;2024-03-06T04:37:35;101986.38;;;3.58;70.36
84374;BME280;74563;52.206;14.630;2024-03-06T04:40:00;101989.59;;;3.31;72.76
84374;BME280;74563;52.206;14.630;2024-03-06T04:42:26;101986.22;;;3.45;71.06
84374;BME280;74563;52.206;14.630;2024-03-06T04:44:51;101982.63;;;3.77;70.71
84374;BME280;74563;52.206;14.630;2024-03-06T04:47:16;101975.78;;;4.78;66.92
84374;BME280;74563;52.206;14.630;2024-03-06T04:49:41;101955.78;;;3.08;72.65
84374;BME280;74563;52.206;14.630;2024-03-06T04:52:07;101985.34;;;3.44;72.26
84374;BME280;74563;52.206;14.630;2024-03-06T04:54:34;102001.97;;;2.64;77.00
84374;BME280;74563;52.206;14.630;2024-03-06T04:56:59;101995.09;;;3.89;71.88
84374;BME280;74563;52.206;14.630;2024-03-06T04:59:24;101991.50;;;5.08;66.85
84374;BME280;74563;52.206;14.630;2024-03-06T05:01:51;101991.56;;;5.35;66.09
84374;BME280;74563;52.206;14.630;2024-03-06T05:04:16;101990.81;;;4.76;67.19
84374;BME280;74563;52.206;14.630;2024-03-06T05:06:41;101990.38;;;4.10;69.73
84374;BME280;74563;52.206;14.630;2024-03-06T05:09:07;101990.38;;;4.98;67.30
84374;BME280;74563;52.206;14.630;2024-03-06T05:11:32;101974.69;;;5.51;64.94
84374;BME280;74563;52.206;14.630;2024-03-06T05:13:59;101984.38;;;4.96;66.74
84374;BME280;74563;52.206;14.630;2024-03-06T05:16:24;102001.78;;;5.27;66.13
84374;BME280;74563;52.206;14.630;2024-03-06T05:18:51;102007.03;;;5.55;65.51
84374;BME280;74563;52.206;14.630;2024-03-06T05:21:17;102008.63;;;5.84;64.43
84374;BME280;74563;52.206;14.630;2024-03-06T05:23:42;102022.53;;;5.88;64.84
84374;BME280;74563;52.206;14.630;2024-03-06T05:26:07;102015.91;;;5.95;63.47
84374;BME280;74563;52.206;14.630;2024-03-06T05:28:32;102019.78;;;5.06;66.84
84374;BME280;74563;52.206;14.630;2024-03-06T05:30:58;102025.06;;;5.06;66.99
84374;BME280;74563;52.206;14.630;2024-03-06T05:33:23;102032.03;;;5.35;67.17
84374;BME280;74563;52.206;14.630;2024-03-06T05:35:48;102037.09;;;5.38;66.68
84374;BME280;74563;52.206;14.630;2024-03-06T05:38:13;102033.25;;;5.30;66.79
84374;BME280;74563;52.206;14.630;2024-03-06T05:40:39;102038.78;;;4.83;68.34
84374;BME280;74563;52.206;14.630;2024-03-06T05:43:05;102039.38;;;4.58;68.68
84374;BME280;74563;52.206;14.630;2024-03-06T05:45:30;102034.66;;;6.31;63.10
84374;BME280;74563;52.206;14.630;2024-03-06T05:47:56;102044.03;;;6.23;63.06
84374;BME280;74563;52.206;14.630;2024-03-06T05:50:21;102033.53;;;5.11;66.60
84374;BME280;74563;52.206;14.630;2024-03-06T05:52:46;102045.22;;;5.21;66.73
84374;BME280;74563;52.206;14.630;2024-03-06T05:55:11;102031.88;;;5.10;67.81
84374;BME280;74563;52.206;14.630;2024-03-06T05:57:37;102025.25;;;5.17;66.71
84374;BME280;74563;52.206;14.630;2024-03-06T06:00:02;102014.59;;;4.90;68.32
84374;BME280;74563;52.206;14.630;2024-03-06T06:02:29;102042.31;;;5.26;66.26
84374;BME280;74563;52.206;14.630;2024-03-06T06:04:55;102048.44;;;5.26;66.31
84374;BME280;74563;52.206;14.630;2024-03-06T06:07:20;102037.88;;;5.26;66.33
84374;BME280;74563;52.206;14.630;2024-03-06T06:09:45;102048.72;;;5.07;68.02
84374;BME280;74563;52.206;14.630;2024-03-06T06:12:11;101993.25;;;4.65;69.10
84374;BME280;74563;52.206;14.630;2024-03-06T06:14:36;102017.88;;;4.94;68.00
84374;BME280;74563;52.206;14.630;2024-03-06T06:17:01;102028.88;;;4.72;68.42
84374;BME280;74563;52.206;14.630;2024-03-06T06:19:28;102050.63;;;5.20;68.34
84374;BME280;74563;52.206;14.630;2024-03-06T06:21:54;102034.50;;;5.10;67.31
84374;BME280;74563;52.206;14.630;2024-03-06T06:24:19;102057.47;;;5.22;66.65
84374;BME280;74563;52.206;14.630;2024-03-06T06:26:44;102068.66;;;6.23;64.16
84374;BME280;74563;52.206;14.630;2024-03-06T06:29:10;102066.63;;;6.14;64.27
84374;BME280;74563;52.206;14.630;2024-03-06T06:31:35;102077.00;;;5.48;66.82
84374;BME280;74563;52.206;14.630;2024-03-06T06:34:00;102049.09;;;5.44;66.57
84374;BME280;74563;52.206;14.630;2024-03-06T06:36:26;102060.88;;;4.96;69.46
84374;BME280;74563;52.206;14.630;2024-03-06T06:38:53;102050.25;;;5.81;65.44
84374;BME280;74563;52.206;14.630;2024-03-06T06:41:18;102056.81;;;5.19;67.46
84374;BME280;74563;52.206;14.630;2024-03-06T06:43:45;102071.34;;;6.75;63.40
84374;BME280;74563;52.206;14.630;2024-03-06T06:46:10;102080.66;;;5.88;65.19
84374;BME280;74563;52.206;14.630;2024-03-06T06:48:36;102054.97;;;6.43;63.42
84374;BME280;74563;52.206;14.630;2024-03-06T06:51:01;102068.53;;;6.91;61.82
84374;BME280;74563;52.206;14.630;2024-03-06T06:53:30;102061.00;;;6.06;64.48
84374;BME280;74563;52.206;14.630;2024-03-06T06:55:55;102085.38;;;6.24;63.72
84374;BME280;74563;52.206;14.630;2024-03-06T06:58:21;102094.22;;;5.82;65.78
84374;BME280;74563;52.206;14.630;2024-03-06T07:00:46;102073.66;;;4.88;69.70
84374;BME280;74563;52.206;14.630;2024-03-06T07:03:11;102057.25;;;5.96;64.06
84374;BME280;74563;52.206;14.630;2024-03-06T07:05:36;102073.56;;;6.02;65.91
84374;BME280;74563;52.206;14.630;2024-03-06T07:08:02;102092.50;;;6.09;64.86
84374;BME280;74563;52.206;14.630;2024-03-06T07:10:27;102108.19;;;5.84;66.70
84374;BME280;74563;52.206;14.630;2024-03-06T07:12:52;102074.25;;;5.92;65.90
84374;BME280;74563;52.206;14.630;2024-03-06T07:15:18;102076.81;;;6.20;64.06
84374;BME280;74563;52.206;14.630;2024-03-06T07:17:43;102106.34;;;5.57;66.76
84374;BME280;74563;52.206;14.630;2024-03-06T07:20:09;102095.56;;;6.03;64.66
84374;BME280;74563;52.206;14.630;2024-03-06T07:22:35;102114.13;;;5.73;67.76
84374;BME280;74563;52.206;14.630;2024-03-06T07:25:01;102113.16;;;6.17;66.46
84374;BME280;74563;52.206;14.630;2024-03-06T07:27:27;102108.28;;;6.11;66.78
84374;BME280;74563;52.206;14.630;2024-03-06T07:29:53;102102.50;;;6.18;65.87
84374;BME280;74563;52.206;14.630;2024-03-06T07:32:19;102124.81;;;6.00;66.85
84374;BME280;74563;52.206;14.630;2024-03-06T07:34:44;102133.88;;;5.82;68.33
84374;BME280;74563;52.206;14.630;2024-03-06T07:37:09;102104.75;;;5.41;69.63
84374;BME280;74563;52.206;14.630;2024-03-06T07:39:35;102142.28;;;6.29;66.10
84374;BME280;74563;52.206;14.630;2024-03-06T07:42:00;102147.66;;;5.73;68.30
84374;BME280;74563;52.206;14.630;2024-03-06T07:44:25;102142.25;;;6.43;66.61
84374;BME280;74563;52.206;14.630;2024-03-06T07:46:50;102139.75;;;5.87;68.32
84374;BME280;74563;52.206;14.630;2024-03-06T07:49:16;102144.78;;;7.24;64.31
84374;BME280;74563;52.206;14.630;2024-03-06T07:51:41;102151.63;;;5.94;68.42
84374;BME280;74563;52.206;14.630;2024-03-06T07:54:06;102159.34;;;5.83;69.24
84374;BME280;74563;52.206;14.630;2024-03-06T07:56:32;102153.69;;;6.44;68.38
84374;BME280;74563;52.206;14.630;2024-03-06T07:58:57;102166.69;;;5.78;68.76
84374;BME280;74563;52.206;14.630;2024-03-06T08:01:23;102162.72;;;5.85;69.77
84374;BME280;74563;52.206;14.630;2024-03-06T08:03:48;102148.56;;;6.55;67.73
84374;BME280;74563;52.206;14.630;2024-03-06T08:06:14;102153.28;;;6.09;68.63
84374;BME280;74563;52.206;14.630;2024-03-06T08:08:43;102160.44;;;6.62;67.82
84374;BME280;74563;52.206;14.630;2024-03-06T08:11:12;102159.38;;;6.65;67.22
84374;BME280;74563;52.206;14.630;2024-03-06T08:13:38;102158.91;;;5.90;69.91
84374;BME280;74563;52.206;14.630;2024-03-06T08:16:07;102161.97;;;6.79;67.19
84374;BME280;74563;52.206;14.630;2024-03-06T08:18:33;102148.38;;;6.17;69.32
84374;BME280;74563;52.206;14.630;2024-03-06T08:20:59;102165.13;;;6.44;67.76
84374;BME280;74563;52.206;14.630;2024-03-06T08:23:24;102172.38;;;5.28;73.56
84374;BME280;74563;52.206;14.630;2024-03-06T08:25:50;102176.63;;;6.02;69.80
84374;BME280;74563;52.206;14.630;2024-03-06T08:28:16;102177.25;;;5.78;70.69
84374;BME280;74563;52.206;14.630;2024-03-06T08:30:41;102176.72;;;7.47;65.46
84374;BME280;74563;52.206;14.630;2024-03-06T08:33:07;102136.00;;;6.98;66.04
84374;BME280;74563;52.206;14.630;2024-03-06T08:35:32;102172.25;;;7.48;65.74
84374;BME280;74563;52.206;14.630;2024-03-06T08:37:57;102170.16;;;7.78;64.84
84374;BME280;74563;52.206;14.630;2024-03-06T08:40:22;102161.03;;;7.44;64.71
84374;BME280;74563;52.206;14.630;2024-03-06T08:42:48;102184.56;;;6.97;67.05
84374;BME280;74563;52.206;14.630;2024-03-06T08:45:13;102169.13;;;7.03;67.53
84374;BME280;74563;52.206;14.630;2024-03-06T08:47:43;102185.72;;;6.93;69.04
84374;BME280;74563;52.206;14.630;2024-03-06T08:50:09;102192.94;;;6.91;68.63
84374;BME280;74563;52.206;14.630;2024-03-06T08:52:35;102161.78;;;7.72;66.26
84374;BME280;74563;52.206;14.630;2024-03-06T08:55:00;102170.72;;;7.06;67.88
84374;BME280;74563;52.206;14.630;2024-03-06T08:57:26;102181.28;;;6.93;69.85
84374;BME280;74563;52.206;14.630;2024-03-06T08:59:54;102187.38;;;6.54;71.33
84374;BME280;74563;52.206;14.630;2024-03-06T09:02:20;102188.19;;;7.61;67.00
84374;BME280;74563;52.206;14.630;2024-03-06T09:04:46;102162.25;;;8.75;63.17
84374;BME280;74563;52.206;14.630;2024-03-06T09:07:12;102189.16;;;8.21;65.66
84374;BME280;74563;52.206;14.630;2024-03-06T09:09:38;102154.44;;;7.25;67.63
84374;BME280;74563;52.206;14.630;2024-03-06T09:12:08;102167.59;;;7.89;66.49
84374;BME280;74563;52.206;14.630;2024-03-06T09:14:38;102198.06;;;8.93;63.00
84374;BME280;74563;52.206;14.630;2024-03-06T09:17:05;102211.47;;;7.43;69.32
84374;BME280;74563;52.206;14.630;2024-03-06T09:19:31;102202.84;;;8.64;64.28
84374;BME280;74563;52.206;14.630;2024-03-06T09:21:57;102195.38;;;6.94;68.03
84374;BME280;74563;52.206;14.630;2024-03-06T09:24:23;102209.25;;;7.37;68.82
84374;BME280;74563;52.206;14.630;2024-03-06T09:26:48;102220.19;;;7.70;66.56
84374;BME280;74563;52.206;14.630;2024-03-06T09:29:14;102214.75;;;7.46;68.20
84374;BME280;74563;52.206;14.630;2024-03-06T09:31:39;102226.31;;;7.83;68.16
84374;BME280;74563;52.206;14.630;2024-03-06T09:34:04;102213.00;;;8.46;63.94
84374;BME280;74563;52.206;14.630;2024-03-06T09:36:29;102211.09;;;8.48;64.96
84374;BME280;74563;52.206;14.630;2024-03-06T09:38:55;102213.03;;;8.70;64.50
84374;BME280;74563;52.206;14.630;2024-03-06T09:41:21;102228.31;;;8.67;63.83
84374;BME280;74563;52.206;14.630;2024-03-06T09:43:47;102222.13;;;9.02;63.35
84374;BME280;74563;52.206;14.630;2024-03-06T09:46:13;102223.78;;;8.92;63.62
84374;BME280;74563;52.206;14.630;2024-03-06T09:48:47;102216.72;;;9.39;62.28
84374;BME280;74563;52.206;14.630;2024-03-06T09:51:14;102218.50;;;9.95;59.24
84374;BME280;74563;52.206;14.630;2024-03-06T09:53:40;102225.34;;;9.53;61.52
84374;BME280;74563;52.206;14.630;2024-03-06T09:56:07;102228.78;;;9.32;63.30
84374;BME280;74563;52.206;14.630;2024-03-06T09:58:33;102215.38;;;9.10;62.63
84374;BME280;74563;52.206;14.630;2024-03-06T10:01:00;102221.63;;;9.67;61.60
84374;BME280;74563;52.206;14.630;2024-03-06T10:03:28;102213.38;;;10.70;58.05
84374;BME280;74563;52.206;14.630;2024-03-06T10:05:53;102198.16;;;10.61;58.45
84374;BME280;74563;52.206;14.630;2024-03-06T10:08:20;102210.94;;;10.78;58.56
84374;BME280;74563;52.206;14.630;2024-03-06T10:10:48;102217.56;;;10.41;58.75
84374;BME280;74563;52.206;14.630;2024-03-06T10:13:16;102218.63;;;10.38;59.76
84374;BME280;74563;52.206;14.630;2024-03-06T10:15:42;102221.16;;;9.84;62.35
84374;BME280;74563;52.206;14.630;2024-03-06T10:18:11;102213.19;;;10.18;60.65
84374;BME280;74563;52.206;14.630;2024-03-06T10:20:37;102218.50;;;9.84;61.21
84374;BME280;74563;52.206;14.630;2024-03-06T10:23:03;102214.75;;;10.42;60.81
84374;BME280;74563;52.206;14.630;2024-03-06T10:25:28;102169.66;;;10.30;59.47
84374;BME280;74563;52.206;14.630;2024-03-06T10:28:09;102206.66;;;9.88;60.30
84374;BME280;74563;52.206;14.630;2024-03-06T10:30:39;102219.31;;;9.74;62.40
84374;BME280;74563;52.206;14.630;2024-03-06T10:33:09;102215.31;;;10.68;59.86
84374;BME280;74563;52.206;14.630;2024-03-06T10:35:35;102220.25;;;9.62;63.19
84374;BME280;74563;52.206;14.630;2024-03-06T10:38:05;102214.63;;;11.19;59.15
84374;BME280;74563;52.206;14.630;2024-03-06T10:40:32;102219.16;;;12.01;54.51
84374;BME280;74563;52.206;14.630;2024-03-06T10:42:59;102219.09;;;12.22;55.26
84374;BME280;74563;52.206;14.630;2024-03-06T10:47:58;102219.03;;;12.42;54.23
84374;BME280;74563;52.206;14.630;2024-03-06T10:50:24;102214.22;;;11.76;56.25
84374;BME280;74563;52.206;14.630;2024-03-06T10:52:53;102210.47;;;11.67;56.38
84374;BME280;74563;52.206;14.630;2024-03-06T10:55:18;102211.75;;;11.84;56.10
84374;BME280;74563;52.206;14.630;2024-03-06T10:57:46;102201.41;;;12.30;54.43
84374;BME280;74563;52.206;14.630;2024-03-06T11:00:14;102193.59;;;11.36;57.03
84374;BME280;74563;52.206;14.630;2024-03-06T11:02:48;102194.13;;;12.32;54.55
84374;BME280;74563;52.206;14.630;2024-03-06T11:05:14;102180.19;;;12.38;53.85
84374;BME280;74563;52.206;14.630;2024-03-06T11:07:40;102205.25;;;12.07;54.88
84374;BME280;74563;52.206;14.630;2024-03-06T11:10:06;102185.38;;;11.90;55.45
84374;BME280;74563;52.206;14.630;2024-03-06T11:12:36;102178.28;;;12.60;53.50
84374;BME280;74563;52.206;14.630;2024-03-06T11:15:16;102208.94;;;11.85;56.61
84374;BME280;74563;52.206;14.630;2024-03-06T11:17:44;102169.44;;;13.07;54.19
84374;BME280;74563;52.206;14.630;2024-03-06T11:20:15;102188.94;;;13.75;51.71
84374;BME280;74563;52.206;14.630;2024-03-06T11:28:26;102181.72;;;13.10;52.58
84374;BME280;74563;52.206;14.630;2024-03-06T11:31:03;102176.78;;;12.17;55.09
84374;BME280;74563;52.206;14.630;2024-03-06T11:33:39;102179.41;;;12.67;53.40
84374;BME280;74563;52.206;14.630;2024-03-06T11:36:23;102179.81;;;12.52;54.71
84374;BME280;74563;52.206;14.630;2024-03-06T11:39:04;102183.75;;;12.48;53.94
84374;BME280;74563;52.206;14.630;2024-03-06T11:41:47;102164.53;;;12.05;55.33
84374;BME280;74563;52.206;14.630;2024-03-06T11:44:18;102186.63;;;11.66;56.73
84374;BME280;74563;52.206;14.630;2024-03-06T11:47:07;102184.25;;;11.42;57.39
84374;BME280;74563;52.206;14.630;2024-03-06T11:49:34;102172.34;;;12.37;55.11
84374;BME280;74563;52.206;14.630;2024-03-06T11:52:02;102174.81;;;12.19;55.30
84374;BME280;74563;52.206;14.630;2024-03-06T11:54:29;102167.63;;;11.59;56.29
84374;BME280;74563;52.206;14.630;2024-03-06T11:56:57;102161.34;;;11.81;55.78
84374;BME280;74563;52.206;14.630;2024-03-06T11:59:27;102185.72;;;11.14;57.53
84374;BME280;74563;52.206;14.630;2024-03-06T12:01:54;102184.09;;;12.15;56.34
84374;BME280;74563;52.206;14.630;2024-03-06T12:04:20;102182.72;;;11.90;57.10
84374;BME280;74563;52.206;14.630;2024-03-06T12:06:46;102145.94;;;11.94;56.42
84374;BME280;74563;52.206;14.630;2024-03-06T12:09:11;102155.16;;;11.60;58.70
84374;BME280;74563;52.206;14.630;2024-03-06T12:11:37;102156.38;;;12.94;53.73
84374;BME280;74563;52.206;14.630;2024-03-06T12:14:03;102168.75;;;12.86;53.87
84374;BME280;74563;52.206;14.630;2024-03-06T12:16:28;102174.28;;;12.25;56.02
84374;BME280;74563;52.206;14.630;2024-03-06T12:18:56;102188.56;;;12.15;56.23
84374;BME280;74563;52.206;14.630;2024-03-06T12:21:34;102170.25;;;10.22;61.90
84374;BME280;74563;52.206;14.630;2024-03-06T12:24:07;102165.34;;;10.92;59.95
84374;BME280;74563;52.206;14.630;2024-03-06T12:26:33;102178.66;;;11.24;59.61
84374;BME280;74563;52.206;14.630;2024-03-06T12:29:11;102196.88;;;10.33;62.67
84374;BME280;74563;52.206;14.630;2024-03-06T12:31:38;102187.03;;;10.45;62.68
84374;BME280;74563;52.206;14.630;2024-03-06T12:34:04;102164.97;;;10.97;59.80
84374;BME280;74563;52.206;14.630;2024-03-06T12:36:30;102157.03;;;10.86;60.35
84374;BME280;74563;52.206;14.630;2024-03-06T12:38:58;102177.22;;;11.92;57.08
84374;BME280;74563;52.206;14.630;2024-03-06T12:41:24;102175.50;;;11.81;57.04
84374;BME280;74563;52.206;14.630;2024-03-06T12:43:51;102132.47;;;11.03;58.54
84374;BME280;74563;52.206;14.630;2024-03-06T12:46:16;102176.66;;;10.74;61.55
84374;BME280;74563;52.206;14.630;2024-03-06T12:48:41;102177.34;;;10.87;59.92
84374;BME280;74563;52.206;14.630;2024-03-06T12:51:07;102178.56;;;11.56;58.14